Time;durP1;ratioP1;P1;durP2;ratioP2;P2;SDS_P1;SDS_P2;PMS_P1;PMS_P2;Temp;Humidity;BMP_temperature;BMP_pressure;BME280_temperature;BME280_humidity;BME280_pressure;Samples;Min_cycle;Max_cycle;Signal;HPM_P1;HPM_P2
2022/03/10 00:02:25;;;;;;;1.90;1.80;;;1.40;98.00;;;;;;6244487;23;20438;-68
2022/03/10 00:04:52;;;;;;;3.13;2.43;;;1.30;98.00;;;;;;6244809;23;20469;-67
2022/03/10 00:07:19;;;;;;;2.40;2.20;;;1.30;98.00;;;;;;6244872;23;20414;-66
2022/03/10 00:09:47;;;;;;;2.93;1.93;;;1.20;98.00;;;;;;6245166;23;20499;-66
2022/03/10 00:12:14;;;;;;;2.40;2.27;;;1.20;98.00;;;;;;6244824;23;20409;-66
2022/03/10 00:14:41;;;;;;;2.77;2.57;;;1.30;98.00;;;;;;6244862;23;20427;-67
2022/03/10 00:17:07;;;;;;;1.40;1.23;;;1.40;98.00;;;;;;6244367;23;20936;-66
2022/03/10 00:19:37;;;;;;;5.10;3.40;;;1.50;98.00;;;;;;6244621;23;20409;-66
2022/03/10 00:22:05;;;;;;;8.57;2.30;;;1.30;98.00;;;;;;6244424;23;20886;-66
2022/03/10 00:24:32;;;;;;;2.33;2.03;;;1.20;98.00;;;;;;6217552;23;20469;-65
2022/03/10 00:26:59;;;;;;;3.27;2.80;;;1.20;98.00;;;;;;6218081;23;20456;-66
2022/03/10 00:29:26;;;;;;;5.20;2.73;;;1.20;98.00;;;;;;6243539;23;20399;-67
2022/03/10 00:31:53;;;;;;;1.47;1.43;;;1.20;98.00;;;;;;6244165;23;20421;-66
2022/03/10 00:34:20;;;;;;;1.67;1.50;;;1.20;98.00;;;;;;6244196;23;20394;-67
2022/03/10 00:36:48;;;;;;;1.20;1.13;;;1.20;98.00;;;;;;6244769;23;20414;-66
2022/03/10 00:39:15;;;;;;;3.20;2.13;;;1.20;98.00;;;;;;6244740;23;20418;-66
2022/03/10 00:41:42;;;;;;;3.40;2.63;;;1.10;98.00;;;;;;6217715;23;20922;-66
2022/03/10 00:44:09;;;;;;;5.87;3.80;;;1.10;98.00;;;;;;6244422;23;20413;-65
2022/03/10 00:46:36;;;;;;;1.60;1.50;;;1.00;98.00;;;;;;6245482;23;20402;-67
2022/03/10 00:49:04;;;;;;;1.70;1.60;;;1.20;98.00;;;;;;6244811;23;20880;-67
2022/03/10 00:51:31;;;;;;;1.50;1.43;;;1.20;98.00;;;;;;6245218;23;20401;-66
2022/03/10 00:53:59;;;;;;;1.77;1.73;;;1.20;98.00;;;;;;6244609;23;20405;-65
2022/03/10 00:56:26;;;;;;;1.50;1.50;;;1.10;98.00;;;;;;6244605;23;20475;-66
2022/03/10 00:58:53;;;;;;;1.93;1.83;;;1.00;98.00;;;;;;6244087;23;20413;-66
2022/03/10 01:01:20;;;;;;;4.97;2.40;;;1.10;98.00;;;;;;6244595;23;20398;-67
2022/03/10 01:03:47;;;;;;;1.30;1.30;;;0.90;98.00;;;;;;6218333;23;20875;-65
2022/03/10 01:06:14;;;;;;;2.97;2.83;;;1.00;98.00;;;;;;6244380;23;20821;-67
2022/03/10 01:08:42;;;;;;;2.33;2.10;;;1.00;98.00;;;;;;6244272;23;20417;-66
2022/03/10 01:11:10;;;;;;;1.60;1.57;;;0.90;98.00;;;;;;6244557;23;20398;-66
2022/03/10 01:13:37;;;;;;;2.47;2.07;;;0.80;98.00;;;;;;6244112;23;20417;-66
2022/03/10 01:16:05;;;;;;;1.63;1.53;;;0.90;98.00;;;;;;6244346;23;20448;-66
2022/03/10 01:18:32;;;;;;;1.53;1.43;;;0.90;98.00;;;;;;6243415;23;20413;-67
2022/03/10 01:20:59;;;;;;;1.27;1.23;;;0.90;98.00;;;;;;6243852;23;20394;-66
2022/03/10 01:23:28;;;;;;;7.33;2.97;;;0.80;98.00;;;;;;6243709;23;20394;-66
2022/03/10 01:25:55;;;;;;;2.80;1.60;;;0.80;98.00;;;;;;6217497;23;20951;-66
2022/03/10 01:28:25;;;;;;;1.83;1.70;;;0.90;98.00;;;;;;6243983;23;20398;-65
2022/03/10 01:30:52;;;;;;;3.33;1.83;;;0.80;98.00;;;;;;6243994;23;20427;-67
2022/03/10 01:33:20;;;;;;;2.40;1.87;;;0.80;98.00;;;;;;6243602;23;20904;-65
2022/03/10 01:35:47;;;;;;;1.73;1.67;;;0.70;98.00;;;;;;6244020;23;20413;-66
2022/03/10 01:38:14;;;;;;;2.03;1.40;;;0.70;98.00;;;;;;6243584;23;20409;-67
2022/03/10 01:40:44;;;;;;;1.63;1.30;;;0.80;98.00;;;;;;6243599;23;20721;-65
2022/03/10 01:43:11;;;;;;;1.40;1.30;;;1.00;98.00;;;;;;6243873;23;20830;-67
2022/03/10 01:45:39;;;;;;;1.83;1.77;;;0.90;98.00;;;;;;6244158;23;20437;-66
2022/03/10 01:48:06;;;;;;;1.77;1.50;;;0.90;98.00;;;;;;6243894;23;20417;-67
2022/03/10 01:50:33;;;;;;;1.50;1.40;;;0.80;98.00;;;;;;6244369;23;20459;-66
2022/03/10 01:53:01;;;;;;;2.07;1.70;;;0.70;98.00;;;;;;6244054;23;20402;-66
2022/03/10 01:55:28;;;;;;;1.93;1.83;;;0.80;98.00;;;;;;6243892;23;20395;-67
2022/03/10 01:57:56;;;;;;;1.30;1.20;;;0.70;98.00;;;;;;6243909;23;20424;-66
2022/03/10 02:00:23;;;;;;;3.10;2.73;;;0.50;98.00;;;;;;6244263;23;20733;-66
2022/03/10 02:02:51;;;;;;;2.43;2.03;;;0.20;98.00;;;;;;6243844;23;20420;-66
2022/03/10 02:05:18;;;;;;;2.00;1.90;;;0.10;98.00;;;;;;6243360;23;20477;-66
2022/03/10 02:10:30;;;;;;;1.80;1.70;;;0.20;98.00;;;;;;6244065;23;20840;-67
2022/03/10 02:12:57;;;;;;;3.10;2.90;;;0.10;98.00;;;;;;6217097;23;20402;-66
2022/03/10 02:18:12;;;;;;;1.53;1.50;;;0.30;98.00;;;;;;6254027;23;20399;-65
2022/03/10 02:20:43;;;;;;;3.10;2.07;;;0.30;98.00;;;;;;6243889;23;20408;-65
2022/03/10 02:23:12;;;;;;;1.20;1.20;;;0.50;98.00;;;;;;6216638;23;20429;-65
2022/03/10 02:25:41;;;;;;;1.63;1.53;;;0.60;98.00;;;;;;6243550;23;20447;-67
2022/03/10 02:28:08;;;;;;;4.97;2.13;;;0.60;98.00;;;;;;6243647;23;20401;-66
2022/03/10 02:30:36;;;;;;;1.60;1.47;;;0.50;98.00;;;;;;6216810;23;20597;-65
2022/03/10 02:33:04;;;;;;;2.87;2.67;;;0.30;98.00;;;;;;6243752;23;20420;-65
2022/03/10 02:35:31;;;;;;;4.37;1.80;;;0.20;98.00;;;;;;6243522;23;20951;-66
2022/03/10 02:37:58;;;;;;;2.30;2.10;;;0.30;98.00;;;;;;6243606;23;20780;-66
2022/03/10 02:40:28;;;;;;;1.43;1.40;;;0.40;98.00;;;;;;6243237;23;20435;-67
2022/03/10 02:42:55;;;;;;;2.10;1.87;;;0.30;98.00;;;;;;6243649;23;20455;-65
2022/03/10 02:45:23;;;;;;;1.30;1.30;;;0.20;98.00;;;;;;6243484;23;20935;-66
2022/03/10 02:47:50;;;;;;;1.30;1.23;;;0.20;98.00;;;;;;6243506;23;20401;-65
2022/03/10 02:50:17;;;;;;;1.43;1.10;;;0.30;98.00;;;;;;6243452;23;20403;-65
2022/03/10 02:52:45;;;;;;;2.20;2.00;;;0.30;98.00;;;;;;6244531;23;20429;-66
2022/03/10 02:55:12;;;;;;;2.80;2.60;;;0.30;98.00;;;;;;6245153;23;20416;-65
2022/03/10 02:57:40;;;;;;;2.37;2.20;;;0.30;98.00;;;;;;6245046;23;20406;-66
2022/03/10 03:00:09;;;;;;;3.10;2.00;;;0.20;98.00;;;;;;6245566;23;20401;-66
2022/03/10 03:02:36;;;;;;;4.53;3.83;;;0.20;98.00;;;;;;6218151;23;20420;-66
2022/03/10 03:05:04;;;;;;;2.23;2.03;;;0.30;98.00;;;;;;6218873;23;20400;-66
2022/03/10 03:07:31;;;;;;;3.77;2.33;;;0.20;98.00;;;;;;6245322;23;20424;-66
2022/03/10 03:09:58;;;;;;;2.83;2.53;;;0.00;98.00;;;;;;6245513;23;20413;-66
2022/03/10 03:12:25;;;;;;;1.57;1.47;;;-0.10;98.00;;;;;;6244901;23;20421;-67
2022/03/10 03:14:54;;;;;;;1.47;1.40;;;0.00;98.00;;;;;;6245505;23;20403;-65
2022/03/10 03:17:21;;;;;;;1.67;1.57;;;0.10;98.00;;;;;;6244791;23;20417;-65
2022/03/10 03:19:48;;;;;;;2.20;1.93;;;0.10;98.00;;;;;;6245094;23;20404;-66
2022/03/10 03:22:15;;;;;;;3.20;2.67;;;0.00;98.00;;;;;;6245348;23;20462;-66
2022/03/10 03:24:42;;;;;;;2.50;2.30;;;-0.10;98.00;;;;;;6245113;23;20420;-66
2022/03/10 03:27:09;;;;;;;1.77;1.67;;;-0.30;98.00;;;;;;6245554;23;20813;-66
2022/03/10 03:29:36;;;;;;;3.43;2.73;;;-0.10;98.00;;;;;;6218537;23;20417;-66
2022/03/10 03:32:06;;;;;;;4.40;2.53;;;-0.10;98.00;;;;;;6245300;23;20470;-66
2022/03/10 03:34:33;;;;;;;2.50;2.30;;;-0.30;98.00;;;;;;6244313;23;20420;-65
2022/03/10 03:37:00;;;;;;;2.33;2.17;;;-0.40;98.00;;;;;;6245628;23;20733;-67
2022/03/10 03:39:27;;;;;;;3.93;2.60;;;-0.30;98.00;;;;;;6245111;23;20937;-65
2022/03/10 03:41:54;;;;;;;2.40;2.20;;;-0.20;98.00;;;;;;6245101;23;20475;-67
2022/03/10 03:44:21;;;;;;;1.90;1.80;;;-0.30;98.00;;;;;;6218215;23;20930;-65
2022/03/10 03:46:48;;;;;;;2.40;2.00;;;-0.20;98.00;;;;;;6244931;23;20460;-65
2022/03/10 03:49:17;;;;;;;2.17;2.00;;;-0.30;98.00;;;;;;6244637;23;20453;-65
2022/03/10 03:51:44;;;;;;;3.83;1.53;;;-0.40;98.00;;;;;;6244954;23;20502;-66
2022/03/10 03:54:11;;;;;;;2.20;2.00;;;-0.50;98.00;;;;;;6244850;23;20400;-67
2022/03/10 03:56:39;;;;;;;4.13;2.80;;;-0.50;98.00;;;;;;6244653;23;20398;-65
2022/03/10 03:59:06;;;;;;;1.97;1.40;;;-0.50;98.00;;;;;;6244889;23;20425;-67
2022/03/10 04:01:33;;;;;;;1.60;1.60;;;-0.60;98.00;;;;;;6244498;23;20448;-65
2022/03/10 04:04:00;;;;;;;4.23;3.20;;;-0.60;98.00;;;;;;6244622;23;20416;-66
2022/03/10 04:06:28;;;;;;;1.80;1.70;;;-0.50;98.00;;;;;;6244643;23;20440;-65
2022/03/10 04:08:55;;;;;;;1.60;1.30;;;-0.40;98.00;;;;;;6244496;23;20401;-65
2022/03/10 04:11:22;;;;;;;2.33;1.50;;;-0.30;98.00;;;;;;6244902;23;20400;-65
2022/03/10 04:13:50;;;;;;;2.33;2.17;;;-0.50;98.00;;;;;;6244718;23;20488;-65
2022/03/10 04:16:18;;;;;;;8.80;2.53;;;-0.60;98.00;;;;;;6244788;23;20437;-65
2022/03/10 04:18:45;;;;;;;1.53;1.47;;;-0.70;98.00;;;;;;6244650;23;20459;-66
2022/03/10 04:21:12;;;;;;;2.07;1.90;;;-0.80;98.00;;;;;;6244114;23;20430;-65
2022/03/10 04:23:40;;;;;;;2.20;2.07;;;-0.80;98.00;;;;;;6244382;23;20914;-66
2022/03/10 04:26:07;;;;;;;1.43;1.33;;;-0.70;98.00;;;;;;6244906;23;20502;-66
2022/03/10 04:28:34;;;;;;;2.10;1.47;;;-0.70;98.00;;;;;;6244261;23;20447;-66
2022/03/10 04:31:02;;;;;;;1.60;1.50;;;-0.60;98.00;;;;;;6244348;23;20459;-65
2022/03/10 04:33:29;;;;;;;1.20;1.20;;;-0.70;98.00;;;;;;6244212;23;20926;-65
2022/03/10 04:35:56;;;;;;;1.20;1.20;;;-0.70;98.00;;;;;;6244598;23;20463;-65
2022/03/10 04:38:24;;;;;;;3.53;2.60;;;-0.80;98.00;;;;;;6244555;23;20726;-65
2022/03/10 04:40:53;;;;;;;1.70;1.60;;;-0.60;98.00;;;;;;6244555;23;20736;-66
2022/03/10 04:43:20;;;;;;;9.60;3.83;;;-0.70;98.00;;;;;;6244826;23;20401;-66
2022/03/10 04:45:47;;;;;;;1.30;1.30;;;-0.90;98.00;;;;;;6244406;23;20460;-65
2022/03/10 04:48:14;;;;;;;1.30;1.20;;;-0.90;98.00;;;;;;6244432;23;20439;-65
2022/03/10 04:50:42;;;;;;;2.33;2.13;;;-0.90;98.00;;;;;;6244088;23;20416;-66
2022/03/10 04:53:13;;;;;;;1.53;1.40;;;-1.00;98.00;;;;;;6244417;23;20439;-66
2022/03/10 04:55:41;;;;;;;1.60;1.50;;;-1.00;98.00;;;;;;6244465;23;20463;-66
2022/03/10 04:58:11;;;;;;;5.03;2.37;;;-0.90;98.00;;;;;;6243918;23;20426;-65
2022/03/10 05:00:38;;;;;;;1.53;1.43;;;-1.00;98.00;;;;;;6243727;23;20915;-66
2022/03/10 05:03:05;;;;;;;1.70;1.63;;;-0.90;98.00;;;;;;6244401;23;20400;-66
2022/03/10 05:05:32;;;;;;;3.10;2.40;;;-0.90;98.00;;;;;;6244101;23;20446;-67
2022/03/10 05:07:59;;;;;;;1.40;1.30;;;-0.80;98.00;;;;;;6244163;23;20416;-66
2022/03/10 05:10:26;;;;;;;1.67;1.67;;;-0.80;98.00;;;;;;6243967;23;20399;-65
2022/03/10 05:12:54;;;;;;;1.20;1.20;;;-0.90;98.00;;;;;;6244256;23;20411;-65
2022/03/10 05:15:26;;;;;;;1.67;1.57;;;-1.00;98.00;;;;;;6243986;23;20743;-65
2022/03/10 05:17:54;;;;;;;1.23;1.20;;;-1.20;98.00;;;;;;6244476;23;20443;-66
2022/03/10 05:20:21;;;;;;;1.10;1.00;;;-1.10;98.00;;;;;;6244550;23;20621;-65
2022/03/10 05:22:50;;;;;;;3.53;2.60;;;-1.10;98.00;;;;;;6217079;23;20483;-66
2022/03/10 05:25:21;;;;;;;2.23;1.73;;;-1.10;98.00;;;;;;6244172;23;20397;-65
2022/03/10 05:27:48;;;;;;;2.63;2.03;;;-1.20;98.00;;;;;;6244003;23;20431;-67
2022/03/10 05:30:17;;;;;;;1.80;1.77;;;-1.30;98.00;;;;;;6243922;23;20423;-65
2022/03/10 05:32:46;;;;;;;2.00;1.90;;;-1.30;98.00;;;;;;6244004;23;20419;-65
2022/03/10 05:35:15;;;;;;;2.07;1.87;;;-1.30;98.00;;;;;;6244166;23;20419;-66
2022/03/10 05:37:43;;;;;;;2.90;2.00;;;-1.20;98.00;;;;;;6244061;23;20427;-65
2022/03/10 05:40:12;;;;;;;1.20;1.10;;;-1.20;98.00;;;;;;6244247;23;20452;-66
2022/03/10 05:42:40;;;;;;;2.03;1.60;;;-1.10;98.00;;;;;;6244145;23;20427;-66
2022/03/10 05:45:08;;;;;;;1.20;1.17;;;-1.10;98.00;;;;;;6244866;23;20716;-65
2022/03/10 05:47:35;;;;;;;2.20;1.50;;;-1.20;98.00;;;;;;6244044;23;20479;-65
2022/03/10 05:50:04;;;;;;;1.83;1.70;;;-1.10;98.00;;;;;;6245012;23;20511;-66
2022/03/10 05:52:36;;;;;;;3.00;1.83;;;-1.20;98.00;;;;;;6217761;23;20408;-65
2022/03/10 05:55:04;;;;;;;1.70;1.60;;;-1.20;98.00;;;;;;6243761;23;20396;-65
2022/03/10 05:57:32;;;;;;;4.30;2.40;;;-1.30;98.00;;;;;;6244173;23;20438;-65
2022/03/10 06:00:00;;;;;;;2.50;2.10;;;-1.30;98.00;;;;;;6243628;23;20436;-66
2022/03/10 06:02:27;;;;;;;2.50;2.30;;;-1.40;98.00;;;;;;6243959;23;20455;-65
2022/03/10 06:04:53;;;;;;;2.23;2.03;;;-1.20;98.00;;;;;;6243786;23;20408;-65
2022/03/10 06:07:22;;;;;;;2.00;1.90;;;-1.10;98.00;;;;;;6243505;23;20462;-66
2022/03/10 06:09:49;;;;;;;1.60;1.40;;;-1.20;98.00;;;;;;6243937;23;20440;-66
2022/03/10 06:12:20;;;;;;;1.30;1.30;;;-1.10;98.00;;;;;;6217557;23;20399;-65
2022/03/10 06:14:47;;;;;;;2.13;1.97;;;-1.00;98.00;;;;;;6243594;23;20868;-65
2022/03/10 06:17:14;;;;;;;2.20;1.93;;;-1.10;98.00;;;;;;6243800;23;20420;-66
2022/03/10 06:19:41;;;;;;;1.83;1.70;;;-1.20;98.00;;;;;;6217111;23;20434;-65
2022/03/10 06:22:09;;;;;;;1.67;1.57;;;-1.30;98.00;;;;;;6243921;23;20403;-66
2022/03/10 06:24:37;;;;;;;5.17;3.40;;;-1.30;98.00;;;;;;6243804;23;20769;-65
2022/03/10 06:27:04;;;;;;;1.70;1.40;;;-1.20;98.00;;;;;;6218071;23;20431;-66
2022/03/10 06:29:31;;;;;;;1.67;1.57;;;-0.90;98.00;;;;;;6219153;23;20839;-65
2022/03/10 06:31:58;;;;;;;2.40;2.20;;;-0.90;98.00;;;;;;6245684;23;20792;-67
2022/03/10 06:34:25;;;;;;;1.90;1.80;;;-0.90;98.00;;;;;;6245646;23;20419;-66
2022/03/10 06:36:52;;;;;;;1.88;1.40;;;-1.00;98.00;;;;;;6245449;23;20637;-66
2022/03/10 06:39:19;;;;;;;1.80;1.70;;;-1.10;98.00;;;;;;6245773;23;20165;-66
2022/03/10 06:41:47;;;;;;;1.30;1.17;;;-1.10;98.00;;;;;;6245764;23;20189;-66
2022/03/10 06:44:14;;;;;;;1.70;1.67;;;-1.10;98.00;;;;;;6245508;23;20481;-66
2022/03/10 06:46:41;;;;;;;1.60;1.50;;;-1.10;98.00;;;;;;6245255;23;21005;-66
2022/03/10 06:49:08;;;;;;;2.00;1.83;;;-1.10;98.00;;;;;;6245256;23;20890;-65
2022/03/10 06:51:36;;;;;;;1.50;1.40;;;-1.10;98.00;;;;;;6245772;23;20416;-65
2022/03/10 06:54:04;;;;;;;1.30;1.30;;;-0.90;98.00;;;;;;6244605;23;20420;-66
2022/03/10 06:56:31;;;;;;;2.63;2.30;;;-0.70;98.00;;;;;;6245538;23;20412;-64
2022/03/10 06:59:00;;;;;;;4.13;2.03;;;-0.60;98.00;;;;;;6245221;23;20432;-65
2022/03/10 07:01:27;;;;;;;5.13;2.60;;;-0.50;98.00;;;;;;6245375;23;20483;-66
2022/03/10 07:03:57;;;;;;;4.13;2.93;;;-0.50;98.00;;;;;;6245216;23;20507;-66
2022/03/10 07:06:24;;;;;;;1.33;1.27;;;-0.50;98.00;;;;;;6245412;23;20482;-65
2022/03/10 07:08:51;;;;;;;2.00;1.90;;;-0.50;98.00;;;;;;6245297;23;20407;-65
2022/03/10 07:11:19;;;;;;;2.17;1.50;;;-0.60;98.00;;;;;;6219131;23;20404;-66
2022/03/10 07:13:46;;;;;;;1.87;1.83;;;-0.60;98.00;;;;;;6245410;23;20783;-65
2022/03/10 07:16:15;;;;;;;2.00;1.83;;;-0.60;98.00;;;;;;6244881;23;20444;-66
2022/03/10 07:18:43;;;;;;;3.40;1.93;;;-0.50;98.00;;;;;;6244983;23;20442;-66
2022/03/10 07:21:10;;;;;;;1.60;1.50;;;-0.50;98.00;;;;;;6244960;23;20448;-66
2022/03/10 07:23:37;;;;;;;1.37;1.33;;;-0.40;98.00;;;;;;6245116;23;20416;-66
2022/03/10 07:26:04;;;;;;;2.07;1.90;;;-0.40;98.00;;;;;;6245163;23;20401;-65
2022/03/10 07:28:31;;;;;;;5.93;3.30;;;-0.30;98.00;;;;;;6243865;23;20455;-67
2022/03/10 07:30:58;;;;;;;2.83;2.43;;;-0.30;98.00;;;;;;6244847;23;20483;-67
2022/03/10 07:33:26;;;;;;;1.30;1.30;;;-0.20;98.00;;;;;;6244681;23;20417;-67
2022/03/10 07:35:53;;;;;;;1.60;1.60;;;-0.10;98.00;;;;;;6244735;23;20441;-65
2022/03/10 07:38:20;;;;;;;1.70;1.43;;;-0.10;98.00;;;;;;6243650;23;20912;-67
2022/03/10 07:40:47;;;;;;;1.80;1.70;;;0.00;98.00;;;;;;6245132;23;20437;-66
2022/03/10 07:43:15;;;;;;;4.13;1.83;;;0.10;98.00;;;;;;6244948;23;20420;-67
2022/03/10 07:45:42;;;;;;;1.97;1.87;;;0.10;98.00;;;;;;6244746;23;20822;-65
2022/03/10 07:48:09;;;;;;;2.00;1.90;;;0.30;98.00;;;;;;6244270;23;20476;-66
2022/03/10 07:50:37;;;;;;;1.30;1.30;;;0.40;98.00;;;;;;6245373;23;20888;-66
2022/03/10 07:53:04;;;;;;;1.20;1.20;;;0.50;98.00;;;;;;6245517;23;20774;-66
2022/03/10 07:55:32;;;;;;;1.60;1.50;;;0.60;98.00;;;;;;6244932;23;20420;-66
2022/03/10 07:57:59;;;;;;;1.50;1.40;;;0.70;98.00;;;;;;6244468;23;20456;-66
2022/03/10 08:00:27;;;;;;;1.40;1.30;;;0.80;98.00;;;;;;6244985;23;20454;-66
2022/03/10 08:02:54;;;;;;;2.60;2.20;;;1.00;98.00;;;;;;6218479;23;20404;-66
2022/03/10 08:05:21;;;;;;;2.07;1.67;;;1.20;98.00;;;;;;6244817;23;20401;-66
2022/03/10 08:07:50;;;;;;;1.20;1.20;;;1.30;98.00;;;;;;6244799;23;20426;-66
2022/03/10 08:10:17;;;;;;;4.03;2.73;;;1.40;98.00;;;;;;6244751;23;20394;-68
2022/03/10 08:12:44;;;;;;;2.07;1.93;;;1.60;98.00;;;;;;6244835;23;20500;-66
2022/03/10 08:15:11;;;;;;;1.93;1.87;;;1.80;98.00;;;;;;6244836;23;20448;-67
2022/03/10 08:17:40;;;;;;;2.23;2.03;;;2.00;98.00;;;;;;6244563;23;20394;-67
2022/03/10 08:20:08;;;;;;;1.70;1.60;;;2.30;98.00;;;;;;6241784;23;20409;-67
2022/03/10 08:22:35;;;;;;;2.47;2.27;;;2.50;98.00;;;;;;6244674;23;20739;-68
2022/03/10 08:25:04;;;;;;;1.60;1.50;;;2.80;98.00;;;;;;6244720;23;20436;-68
2022/03/10 08:27:32;;;;;;;2.60;2.10;;;3.00;98.00;;;;;;6244499;23;20552;-68
2022/03/10 08:29:59;;;;;;;1.67;1.20;;;3.20;98.00;;;;;;6243888;23;20435;-67
2022/03/10 08:32:27;;;;;;;2.37;2.17;;;3.30;98.00;;;;;;6218204;23;20395;-66
2022/03/10 08:34:54;;;;;;;1.83;1.70;;;3.50;98.00;;;;;;6244508;23;20451;-67
2022/03/10 08:37:21;;;;;;;2.10;1.83;;;3.60;98.00;;;;;;6243834;23;20399;-66
2022/03/10 08:39:48;;;;;;;2.20;2.07;;;3.90;98.00;;;;;;6244674;23;20453;-66
2022/03/10 08:42:16;;;;;;;1.67;1.50;;;4.10;98.00;;;;;;6243546;23;20459;-66
2022/03/10 08:44:43;;;;;;;2.93;2.80;;;4.30;98.00;;;;;;6242665;23;20410;-66
2022/03/10 08:47:10;;;;;;;2.10;1.43;;;4.50;98.00;;;;;;6243638;23;20490;-68
2022/03/10 08:49:37;;;;;;;3.43;2.23;;;4.70;98.00;;;;;;6215326;23;20902;-68
2022/03/10 08:52:05;;;;;;;1.70;1.30;;;5.00;98.00;;;;;;6242958;23;20901;-69
2022/03/10 08:54:32;;;;;;;2.20;1.67;;;5.30;98.00;;;;;;6243436;23;20402;-70
2022/03/10 08:56:59;;;;;;;3.00;1.70;;;5.60;98.00;;;;;;6243402;23;20402;-69
2022/03/10 08:59:27;;;;;;;3.60;2.67;;;5.90;97.90;;;;;;6243104;23;20398;-67
2022/03/10 09:01:54;;;;;;;1.80;1.47;;;6.10;97.60;;;;;;6243064;23;20907;-68
2022/03/10 09:04:21;;;;;;;4.70;2.40;;;6.40;96.60;;;;;;6243460;23;20743;-71
2022/03/10 09:06:49;;;;;;;6.13;2.23;;;6.70;95.90;;;;;;6243182;23;20734;-69
2022/03/10 09:09:17;;;;;;;2.40;2.27;;;6.90;95.40;;;;;;6242942;23;20448;-68
2022/03/10 09:11:44;;;;;;;1.53;1.50;;;7.20;95.40;;;;;;6216976;23;20488;-68
2022/03/10 09:14:11;;;;;;;2.47;2.30;;;7.40;94.00;;;;;;6241499;23;20408;-68
2022/03/10 09:16:40;;;;;;;2.00;1.53;;;7.70;93.80;;;;;;6243025;23;20465;-68
2022/03/10 09:19:07;;;;;;;1.70;1.50;;;7.90;92.30;;;;;;6242934;23;20399;-68
2022/03/10 09:21:35;;;;;;;4.93;2.20;;;8.10;91.90;;;;;;6242634;23;20408;-68
2022/03/10 09:24:02;;;;;;;2.20;1.60;;;8.40;90.60;;;;;;6242670;23;20501;-68
2022/03/10 09:26:29;;;;;;;1.93;1.40;;;8.70;90.40;;;;;;6243191;23;20720;-65
2022/03/10 09:28:56;;;;;;;2.30;2.13;;;8.90;90.00;;;;;;6242997;23;20837;-67
2022/03/10 09:31:25;;;;;;;3.40;3.20;;;9.10;87.70;;;;;;6242353;23;20428;-67
2022/03/10 09:33:54;;;;;;;2.23;1.67;;;9.30;87.70;;;;;;6243223;23;20400;-68
2022/03/10 09:36:21;;;;;;;2.80;2.07;;;9.70;81.50;;;;;;6243702;23;20458;-69
2022/03/10 09:38:48;;;;;;;1.30;1.20;;;10.10;81.00;;;;;;6243757;23;20401;-67
2022/03/10 09:41:17;;;;;;;2.00;1.47;;;10.50;79.30;;;;;;6243520;23;20405;-67
2022/03/10 09:43:44;;;;;;;2.30;2.10;;;10.90;79.00;;;;;;6243772;23;20481;-69
2022/03/10 09:46:11;;;;;;;1.60;1.27;;;11.30;77.40;;;;;;6243709;23;20765;-68
2022/03/10 09:48:40;;;;;;;1.40;1.37;;;11.60;75.80;;;;;;6243654;23;20473;-68
2022/03/10 09:51:09;;;;;;;1.80;1.63;;;12.00;74.90;;;;;;6243143;23;20425;-68
2022/03/10 09:53:37;;;;;;;2.80;1.73;;;12.30;73.90;;;;;;6243344;23;20417;-69
2022/03/10 09:56:05;;;;;;;1.40;1.20;;;12.60;72.20;;;;;;6243759;23;20458;-68
2022/03/10 09:58:38;;;;;;;1.30;1.20;;;12.70;71.40;;;;;;6243674;23;20426;-67
2022/03/10 10:01:07;;;;;;;2.70;1.90;;;13.00;71.10;;;;;;6242937;23;20805;-68
2022/03/10 10:03:36;;;;;;;1.30;1.20;;;13.30;70.40;;;;;;6216405;23;20891;-67
2022/03/10 10:06:04;;;;;;;1.40;1.33;;;13.50;68.80;;;;;;6242849;23;20431;-70
2022/03/10 10:08:34;;;;;;;4.40;1.70;;;13.70;68.00;;;;;;6242542;23;20430;-67
2022/03/10 10:11:01;;;;;;;1.53;1.20;;;13.90;67.50;;;;;;6243040;23;20404;-66
2022/03/10 10:13:31;;;;;;;3.00;1.40;;;14.10;67.30;;;;;;6242794;23;20903;-69
2022/03/10 10:16:01;;;;;;;1.67;1.33;;;14.30;66.50;;;;;;6242471;23;20485;-67
2022/03/10 10:18:28;;;;;;;1.30;1.30;;;14.60;66.40;;;;;;6215793;23;20401;-67
2022/03/10 10:20:57;;;;;;;1.43;1.40;;;14.80;66.20;;;;;;6242912;23;20771;-67
2022/03/10 10:23:25;;;;;;;1.93;1.40;;;15.00;65.40;;;;;;6242923;23;20407;-70
2022/03/10 10:25:57;;;;;;;2.40;1.43;;;15.20;64.70;;;;;;6242807;23;20769;-72
2022/03/10 10:28:28;;;;;;;2.50;1.60;;;15.40;64.80;;;;;;6242576;23;20436;-69
2022/03/10 10:30:58;;;;;;;1.40;1.20;;;15.50;63.80;;;;;;6242397;23;20462;-68
2022/03/10 10:33:26;;;;;;;2.23;1.53;;;15.60;63.00;;;;;;6242706;23;20467;-68
2022/03/10 10:36:13;;;;;;;3.77;2.27;;;15.80;62.80;;;;;;6242405;23;20452;-67
2022/03/10 10:38:41;;;;;;;1.67;1.57;;;16.00;62.60;;;;;;6243097;23;20447;-68
2022/03/10 10:41:27;;;;;;;1.70;1.23;;;16.20;60.80;;;;;;6242475;23;20398;-69
2022/03/10 10:43:56;;;;;;;4.17;2.23;;;16.50;61.60;;;;;;6242323;23;20436;-69
2022/03/10 10:46:31;;;;;;;1.60;1.50;;;16.60;59.70;;;;;;6243377;23;20771;-67
2022/03/10 10:49:00;;;;;;;1.77;1.40;;;16.70;60.30;;;;;;6243700;23;20425;-69
2022/03/10 10:51:33;;;;;;;1.40;1.23;;;16.90;59.10;;;;;;6243870;23;20891;-67
2022/03/10 10:54:02;;;;;;;1.40;1.30;;;17.00;59.90;;;;;;6242926;23;20402;-68
2022/03/10 10:56:31;;;;;;;2.13;1.40;;;17.00;58.40;;;;;;6242967;23;20398;-67
2022/03/10 10:59:01;;;;;;;1.40;1.40;;;17.10;58.50;;;;;;6242654;23;20720;-68
2022/03/10 11:01:30;;;;;;;2.13;1.53;;;17.10;57.40;;;;;;6216215;23;20426;-68
2022/03/10 11:03:57;;;;;;;1.67;1.40;;;17.30;57.10;;;;;;6242405;23;20865;-69
2022/03/10 11:06:25;;;;;;;2.63;1.43;;;17.50;58.40;;;;;;6242676;23;20427;-68
2022/03/10 11:08:54;;;;;;;1.87;1.30;;;17.80;57.20;;;;;;6241989;23;20434;-68
2022/03/10 11:11:22;;;;;;;1.73;1.33;;;17.90;56.30;;;;;;6242128;23;20398;-67
2022/03/10 11:13:50;;;;;;;1.97;1.40;;;18.00;56.20;;;;;;6243547;23;20781;-71
2022/03/10 11:16:18;;;;;;;2.57;1.80;;;18.20;55.60;;;;;;6244708;23;20398;-69
2022/03/10 11:18:50;;;;;;;1.57;1.53;;;18.30;55.70;;;;;;6244410;23;20397;-68
2022/03/10 11:21:53;;;;;;;2.30;1.60;;;18.50;55.10;;;;;;6244441;23;20429;-69
2022/03/10 11:24:34;;;;;;;1.90;1.37;;;18.40;55.60;;;;;;6212905;23;20780;-71
2022/03/10 11:27:08;;;;;;;2.33;1.50;;;18.60;54.90;;;;;;6244244;23;20401;-70
2022/03/10 11:29:38;;;;;;;1.90;1.50;;;18.50;54.20;;;;;;6243942;23;20461;-68
2022/03/10 11:32:07;;;;;;;1.30;1.20;;;18.60;54.70;;;;;;6244368;23;20425;-68
2022/03/10 11:34:48;;;;;;;4.23;1.80;;;18.90;53.90;;;;;;6244067;23;20393;-67
2022/03/10 11:37:52;;;;;;;2.00;1.70;;;19.20;54.70;;;;;;6244159;23;20390;-67
2022/03/10 11:40:38;;;;;;;2.23;1.50;;;19.20;53.90;;;;;;6244024;23;20401;-69
2022/03/10 11:43:05;;;;;;;1.80;1.60;;;19.40;53.80;;;;;;6243750;23;20409;-69
2022/03/10 11:45:34;;;;;;;2.50;1.70;;;19.50;53.30;;;;;;6243792;23;20463;-68
2022/03/10 11:48:33;;;;;;;2.23;1.47;;;19.50;53.10;;;;;;6243700;23;20426;-68
2022/03/10 11:51:09;;;;;;;3.00;1.93;;;19.70;53.80;;;;;;6243105;23;20413;-68
2022/03/10 11:53:55;;;;;;;3.30;2.07;;;19.80;52.40;;;;;;6243703;23;20406;-69
2022/03/10 11:56:34;;;;;;;2.13;1.73;;;19.90;53.90;;;;;;6243976;23;20401;-68
2022/03/10 11:59:18;;;;;;;2.27;1.53;;;19.90;52.40;;;;;;6243401;23;20394;-67
2022/03/10 12:01:46;;;;;;;3.00;1.73;;;20.00;52.20;;;;;;6244186;23;20409;-68
2022/03/10 12:04:16;;;;;;;1.83;1.60;;;20.40;52.10;;;;;;6243824;23;20445;-69
2022/03/10 12:06:49;;;;;;;2.77;1.80;;;20.50;51.50;;;;;;6243929;23;20447;-71
2022/03/10 12:09:29;;;;;;;1.90;1.40;;;20.60;51.20;;;;;;6243740;23;20755;-68
2022/03/10 12:12:13;;;;;;;3.03;1.90;;;20.80;50.50;;;;;;6243754;23;20405;-68
2022/03/10 12:14:40;;;;;;;1.57;1.40;;;20.90;50.80;;;;;;6243677;23;20768;-68
2022/03/10 12:17:49;;;;;;;1.73;1.50;;;21.10;49.10;;;;;;6243499;23;20406;-69
2022/03/10 12:20:18;;;;;;;2.40;1.70;;;21.10;49.30;;;;;;6243655;23;20425;-68
2022/03/10 12:23:09;;;;;;;2.23;1.53;;;21.30;48.70;;;;;;6243802;23;20422;-68
2022/03/10 12:25:40;;;;;;;2.60;1.70;;;21.20;48.00;;;;;;6243418;23;20485;-68
2022/03/10 12:28:08;;;;;;;2.17;1.73;;;20.80;47.10;;;;;;6243585;23;20560;-68
2022/03/10 12:30:40;;;;;;;2.40;1.67;;;20.70;49.20;;;;;;6243321;23;20453;-68
2022/03/10 12:33:09;;;;;;;2.50;1.80;;;21.00;48.90;;;;;;6244627;23;20402;-70
2022/03/10 12:35:38;;;;;;;2.17;1.83;;;21.20;49.20;;;;;;6244430;23;20401;-68
2022/03/10 12:38:05;;;;;;;1.77;1.63;;;21.60;48.60;;;;;;6244974;23;20717;-67
2022/03/10 12:40:35;;;;;;;3.10;2.03;;;21.80;48.30;;;;;;6244296;23;20414;-68
2022/03/10 12:43:04;;;;;;;1.50;1.50;;;21.90;47.10;;;;;;6244399;23;20410;-67
2022/03/10 12:45:32;;;;;;;2.40;1.73;;;21.90;47.00;;;;;;6244483;23;20421;-68
2022/03/10 12:48:05;;;;;;;2.37;1.70;;;21.70;47.40;;;;;;6254513;23;20475;-68
2022/03/10 12:50:37;;;;;;;1.50;1.37;;;21.70;47.00;;;;;;6244188;23;20433;-68
2022/03/10 12:53:10;;;;;;;3.90;2.07;;;21.70;47.40;;;;;;6244576;23;20391;-68
2022/03/10 12:55:39;;;;;;;2.60;1.80;;;21.90;46.80;;;;;;6244113;23;20402;-69
2022/03/10 12:58:06;;;;;;;3.77;1.73;;;21.90;46.80;;;;;;6244455;23;20405;-67
2022/03/10 13:00:38;;;;;;;1.73;1.33;;;21.90;46.90;;;;;;6244500;23;20452;-69
2022/03/10 13:03:05;;;;;;;2.43;1.60;;;21.80;46.70;;;;;;6218101;23;20743;-68
2022/03/10 13:05:37;;;;;;;4.57;1.73;;;22.00;46.10;;;;;;6253796;23;20448;-69